createdAt,value
2019-02-14T00:00:45.429Z,72.00
2019-02-14T00:03:18.483Z,71.80
2019-02-14T00:05:52.104Z,72.10
2019-02-14T00:08:24.643Z,72.50
2019-02-14T00:10:56.642Z,72.70
2019-02-14T00:13:29.624Z,72.50
2019-02-14T00:16:02.883Z,72.70
2019-02-14T00:18:34.963Z,73.00
2019-02-14T00:21:07.523Z,73.00
2019-02-14T00:23:41.224Z,72.90
2019-02-14T00:26:13.964Z,72.70
2019-02-14T00:28:46.224Z,72.60
2019-02-14T00:31:18.862Z,72.50
2019-02-14T00:33:51.443Z,72.40
2019-02-14T00:36:24.304Z,72.20
2019-02-14T00:38:57.062Z,72.00
2019-02-14T00:41:29.963Z,71.90
2019-02-14T00:44:03.563Z,72.00
2019-02-14T00:46:37.642Z,71.80
2019-02-14T00:49:10.744Z,71.80
2019-02-14T00:51:42.942Z,72.10
2019-02-14T00:54:15.303Z,71.70
2019-02-14T00:56:48.527Z,71.90
2019-02-14T00:59:20.562Z,72.20
2019-02-14T01:01:53.723Z,72.40
2019-02-14T01:04:27.148Z,72.20
2019-02-14T01:06:59.583Z,72.40
2019-02-14T01:09:32.002Z,73.40
2019-02-14T01:12:05.004Z,72.70
2019-02-14T01:14:37.582Z,72.80
2019-02-14T01:17:10.643Z,72.50
2019-02-14T01:19:43.562Z,72.70
2019-02-14T01:22:15.723Z,73.10
2019-02-14T01:24:48.146Z,73.40
2019-02-14T01:27:20.323Z,73.30
2019-02-14T01:29:53.843Z,73.40
2019-02-14T01:32:25.762Z,73.20
2019-02-14T01:34:59.183Z,73.30
2019-02-14T01:37:32.004Z,73.20
2019-02-14T01:40:04.183Z,73.40
2019-02-14T01:42:36.963Z,73.60
2019-02-14T01:45:11.003Z,73.80
2019-02-14T01:47:44.823Z,74.00
2019-02-14T01:50:17.763Z,73.30
2019-02-14T01:52:49.584Z,73.20
2019-02-14T01:55:22.223Z,73.50
2019-02-14T01:57:55.162Z,73.90
2019-02-14T02:00:28.324Z,73.90
2019-02-14T02:03:00.663Z,73.90
2019-02-14T02:05:33.003Z,73.90
2019-02-14T02:08:05.962Z,73.70
2019-02-14T02:10:39.624Z,73.90
2019-02-14T02:13:12.302Z,74.00
2019-02-14T02:15:45.263Z,74.00
2019-02-14T02:18:17.623Z,73.90
2019-02-14T02:20:51.003Z,74.10
2019-02-14T02:23:24.303Z,74.30
2019-02-14T02:25:56.903Z,74.30
2019-02-14T02:28:29.764Z,73.90
2019-02-14T02:31:02.051Z,73.70
2019-02-14T02:33:34.883Z,73.80
2019-02-14T02:36:07.648Z,74.60
2019-02-14T02:38:40.627Z,74.10
2019-02-14T02:41:14.090Z,73.70
2019-02-14T02:43:46.483Z,73.60
2019-02-14T02:46:18.842Z,73.10
2019-02-14T02:48:51.543Z,72.90
2019-02-14T02:51:24.662Z,72.90
2019-02-14T02:53:57.786Z,72.90
2019-02-14T02:56:30.603Z,73.10
2019-02-14T02:59:03.084Z,73.00
2019-02-14T03:01:35.803Z,73.00
2019-02-14T03:04:08.383Z,71.90
2019-02-14T03:06:41.262Z,72.70
2019-02-14T03:09:14.243Z,72.30
2019-02-14T03:11:46.863Z,73.10
2019-02-14T03:14:19.482Z,73.10
2019-02-14T03:16:52.784Z,73.60
2019-02-14T03:19:26.002Z,73.80
2019-02-14T03:21:59.304Z,73.40
2019-02-14T03:24:31.784Z,74.10
2019-02-14T03:27:03.983Z,74.50
2019-02-14T03:29:36.524Z,74.50
2019-02-14T03:32:09.586Z,74.20
2019-02-14T03:34:43.142Z,74.10
2019-02-14T03:37:15.865Z,74.20
2019-02-14T03:39:48.483Z,74.20
2019-02-14T03:42:21.143Z,74.10
2019-02-14T03:44:53.704Z,73.90
2019-02-14T03:47:25.803Z,73.90
2019-02-14T03:49:58.542Z,74.10
2019-02-14T03:52:31.429Z,73.80
2019-02-14T03:55:03.783Z,73.90
2019-02-14T03:57:36.643Z,74.20
2019-02-14T04:00:11.770Z,74.40
2019-02-14T04:02:44.626Z,74.50
2019-02-14T04:05:16.887Z,74.90
2019-02-14T04:07:50.183Z,74.60
2019-02-14T04:10:23.404Z,74.50
2019-02-14T04:12:55.866Z,74.30
2019-02-14T04:15:28.482Z,74.40
2019-02-14T04:18:00.523Z,74.40
2019-02-14T04:20:33.583Z,74.60
2019-02-14T04:23:06.043Z,74.70
2019-02-14T04:25:39.243Z,74.70
2019-02-14T04:28:12.364Z,74.60
2019-02-14T04:30:44.603Z,74.80
2019-02-14T04:33:17.324Z,75.10
2019-02-14T04:35:50.602Z,75.00
2019-02-14T04:38:22.863Z,74.80
2019-02-14T04:40:55.163Z,74.80
2019-02-14T04:43:28.103Z,75.10
2019-02-14T04:46:00.244Z,75.30
2019-02-14T04:48:32.583Z,75.30
2019-02-14T04:51:05.083Z,75.50
2019-02-14T04:53:37.585Z,75.40
2019-02-14T04:56:10.544Z,75.40
2019-02-14T04:58:43.343Z,75.80
2019-02-14T05:01:16.142Z,76.00
2019-02-14T05:03:48.683Z,76.30
2019-02-14T05:06:21.143Z,76.20
2019-02-14T05:08:54.703Z,75.80
2019-02-14T05:11:27.725Z,75.80
2019-02-14T05:13:59.823Z,75.50
2019-02-14T05:16:32.623Z,75.60
2019-02-14T05:19:05.983Z,75.70
2019-02-14T05:21:38.346Z,75.70
2019-02-14T05:24:11.363Z,75.50
2019-02-14T05:26:43.504Z,75.70
2019-02-14T05:29:16.143Z,75.90
2019-02-14T05:31:49.123Z,75.80
2019-02-14T05:34:21.503Z,75.50
2019-02-14T05:36:55.232Z,75.10
2019-02-14T05:39:28.424Z,75.70
2019-02-14T05:42:01.903Z,75.10
2019-02-14T05:44:35.023Z,75.30
2019-02-14T05:47:08.623Z,76.10
2019-02-14T05:49:41.483Z,75.70
2019-02-14T05:52:12.203Z,75.80
2019-02-14T05:54:45.123Z,76.00
2019-02-14T05:57:17.103Z,76.40
2019-02-14T05:59:50.005Z,75.60
2019-02-14T06:02:23.843Z,75.50
2019-02-14T06:04:56.203Z,75.90
2019-02-14T06:07:29.263Z,75.90
2019-02-14T06:10:01.904Z,75.80
2019-02-14T06:12:35.004Z,76.00
2019-02-14T06:15:08.582Z,76.10
2019-02-14T06:17:41.585Z,76.20
2019-02-14T06:20:14.304Z,76.50
2019-02-14T06:22:46.874Z,76.50
2019-02-14T06:25:19.984Z,76.50
2019-02-14T06:27:53.487Z,76.00
2019-02-14T06:30:25.504Z,76.10
2019-02-14T06:32:57.967Z,76.20
2019-02-14T06:35:31.503Z,76.40
2019-02-14T06:38:04.109Z,76.50
2019-02-14T06:40:36.424Z,76.60
2019-02-14T06:43:09.011Z,76.40
2019-02-14T06:45:41.564Z,76.10
2019-02-14T06:48:14.063Z,76.20
2019-02-14T06:50:46.983Z,76.00
2019-02-14T06:53:20.049Z,76.20
2019-02-14T06:55:52.366Z,76.20
2019-02-14T06:58:25.143Z,76.40
2019-02-14T07:00:57.927Z,76.10
2019-02-14T07:03:31.123Z,76.30
2019-02-14T07:06:03.506Z,76.40
2019-02-14T07:08:36.003Z,76.40
2019-02-14T07:11:08.602Z,76.60
2019-02-14T07:13:42.143Z,76.00
2019-02-14T07:16:15.785Z,76.40
2019-02-14T07:18:49.163Z,77.00
2019-02-14T07:21:21.842Z,77.30
2019-02-14T07:23:55.444Z,77.70
2019-02-14T07:26:28.683Z,77.30
2019-02-14T07:29:01.523Z,77.50
2019-02-14T07:31:34.884Z,77.50
2019-02-14T07:34:07.023Z,77.40
2019-02-14T07:36:39.785Z,77.50
2019-02-14T07:39:12.822Z,77.50
2019-02-14T07:41:45.126Z,78.10
2019-02-14T07:44:17.903Z,77.40
2019-02-14T07:46:50.850Z,77.00
2019-02-14T07:49:23.825Z,77.20
2019-02-14T07:51:56.243Z,77.30
2019-02-14T07:54:29.423Z,78.00
2019-02-14T07:57:01.683Z,77.40
2019-02-14T07:59:34.843Z,77.50
2019-02-14T08:02:07.603Z,77.60
2019-02-14T08:04:40.942Z,76.70
2019-02-14T08:07:14.803Z,76.60
2019-02-14T08:09:47.086Z,76.40
2019-02-14T08:12:19.646Z,76.20
2019-02-14T08:14:52.363Z,76.20
2019-02-14T08:17:25.315Z,75.90
2019-02-14T08:19:57.415Z,75.20
2019-02-14T08:22:30.014Z,74.60
2019-02-14T08:25:02.815Z,74.50
2019-02-14T08:27:35.263Z,75.00
2019-02-14T08:30:08.397Z,74.70
2019-02-14T08:32:41.055Z,74.30
2019-02-14T08:35:13.617Z,73.50
2019-02-14T08:37:46.198Z,73.50
2019-02-14T08:40:24.295Z,73.20
2019-02-14T08:42:58.464Z,73.40
2019-02-14T08:45:31.095Z,74.20
2019-02-14T08:48:04.296Z,74.30
2019-02-14T08:50:37.217Z,74.50
2019-02-14T08:53:10.938Z,75.00
2019-02-14T08:55:42.805Z,74.50
2019-02-14T08:58:15.096Z,74.30
2019-02-14T09:00:48.295Z,74.80
2019-02-14T09:03:21.784Z,74.80
2019-02-14T09:05:54.014Z,74.10
2019-02-14T09:08:26.476Z,74.20
2019-02-14T09:10:59.976Z,72.90
2019-02-14T09:13:33.104Z,72.50
2019-02-14T09:16:05.494Z,72.20
2019-02-14T09:18:37.576Z,71.60
2019-02-14T09:21:10.794Z,72.10
2019-02-14T09:23:43.337Z,71.50
2019-02-14T09:26:15.695Z,71.70
2019-02-14T09:28:48.514Z,71.50
2019-02-14T09:31:20.754Z,71.70
2019-02-14T09:33:52.576Z,71.70
2019-02-14T09:36:25.453Z,70.90
2019-02-14T09:38:57.755Z,70.20
2019-02-14T09:41:30.138Z,70.30
2019-02-14T09:44:02.441Z,69.20
2019-02-14T09:46:34.735Z,69.60
2019-02-14T09:49:07.727Z,68.70
2019-02-14T09:51:39.902Z,69.20
2019-02-14T09:54:12.822Z,68.90
2019-02-14T09:56:45.394Z,67.80
2019-02-14T09:59:17.901Z,68.40
2019-02-14T10:01:50.686Z,67.70
2019-02-14T10:04:23.642Z,67.30
2019-02-14T10:06:56.677Z,67.50
2019-02-14T10:09:28.746Z,67.30
2019-02-14T10:12:01.566Z,66.80
2019-02-14T10:14:33.882Z,66.50
2019-02-14T10:17:06.482Z,66.90
2019-02-14T10:19:38.228Z,66.50
2019-02-14T10:22:11.380Z,66.80
2019-02-14T10:24:43.786Z,66.40
2019-02-14T10:27:16.022Z,70.10
2019-02-14T10:29:49.104Z,64.60
2019-02-14T10:32:21.661Z,61.30
2019-02-14T10:34:54.402Z,62.20
2019-02-14T10:37:27.642Z,63.40
2019-02-14T10:40:00.252Z,63.30
2019-02-14T10:42:32.722Z,63.80
2019-02-14T10:45:06.062Z,64.10
2019-02-14T10:47:38.466Z,64.40
2019-02-14T10:50:12.444Z,64.50
2019-02-14T10:52:45.762Z,64.00
2019-02-14T10:55:19.362Z,63.70
2019-02-14T10:57:51.542Z,62.80
2019-02-14T11:00:24.924Z,62.30
2019-02-14T11:02:57.602Z,62.00
2019-02-14T11:05:30.721Z,62.10
2019-02-14T11:08:03.902Z,61.80
2019-02-14T11:10:36.982Z,60.70
2019-02-14T11:13:09.104Z,59.90
2019-02-14T11:15:41.804Z,60.50
2019-02-14T11:18:14.424Z,61.30
2019-02-14T11:20:46.998Z,60.10
2019-02-14T11:23:19.909Z,59.90
2019-02-14T11:25:52.706Z,59.80
2019-02-14T11:28:25.016Z,59.50
2019-02-14T11:30:59.475Z,58.40
2019-02-14T11:33:32.055Z,58.30
2019-02-14T11:36:04.792Z,57.80
2019-02-14T11:38:40.611Z,58.20
2019-02-14T11:41:10.221Z,58.20
2019-02-14T11:43:42.803Z,58.60
2019-02-14T11:46:15.346Z,55.90
2019-02-14T11:48:47.948Z,56.20
2019-02-14T11:51:20.959Z,55.40
2019-02-14T11:53:53.320Z,55.70
2019-02-14T11:56:26.122Z,54.90
2019-02-14T11:58:58.519Z,55.10
2019-02-14T12:01:30.860Z,54.50
2019-02-14T12:04:02.639Z,54.00
2019-02-14T12:06:35.311Z,53.00
2019-02-14T12:09:09.140Z,52.70
2019-02-14T12:11:42.187Z,51.60
2019-02-14T12:14:15.800Z,51.80
2019-02-14T12:16:49.359Z,52.00
2019-02-14T12:19:21.239Z,51.80
2019-02-14T12:21:54.040Z,51.30
2019-02-14T12:24:27.079Z,50.80
2019-02-14T12:26:59.280Z,50.40
2019-02-14T12:29:32.439Z,50.00
2019-02-14T12:32:05.621Z,49.40
2019-02-14T12:34:38.940Z,49.60
2019-02-14T12:37:11.180Z,50.00
2019-02-14T12:39:43.641Z,50.40
2019-02-14T12:42:16.159Z,51.10
2019-02-14T12:44:48.658Z,51.00
2019-02-14T12:47:21.600Z,51.90
2019-02-14T12:49:54.163Z,51.90
2019-02-14T12:52:27.479Z,51.90
2019-02-14T12:54:59.920Z,51.90
2019-02-14T12:57:32.700Z,51.70
2019-02-14T13:00:05.466Z,52.00
2019-02-14T13:02:38.319Z,52.00
2019-02-14T13:05:11.006Z,52.30
2019-02-14T13:07:43.488Z,53.50
2019-02-14T13:10:15.782Z,53.90
2019-02-14T13:12:48.659Z,53.90
2019-02-14T13:15:22.843Z,54.50
2019-02-14T13:17:55.057Z,54.20
2019-02-14T13:20:28.853Z,54.50
2019-02-14T13:23:01.200Z,54.40
2019-02-14T13:25:33.355Z,54.60
2019-02-14T13:28:05.879Z,54.90
2019-02-14T13:30:38.133Z,55.00
2019-02-14T13:33:11.075Z,55.00
2019-02-14T13:35:43.875Z,54.80
2019-02-14T13:38:16.111Z,54.60
2019-02-14T13:40:48.604Z,55.00
2019-02-14T13:43:21.625Z,55.20
2019-02-14T13:45:54.455Z,55.00
2019-02-14T13:48:26.659Z,55.10
2019-02-14T13:50:59.094Z,55.50
2019-02-14T13:53:31.894Z,55.40
2019-02-14T13:56:04.833Z,55.90
2019-02-14T13:58:38.135Z,55.30
2019-02-14T14:01:10.907Z,56.00
2019-02-14T14:03:43.027Z,55.90
2019-02-14T14:06:15.599Z,56.40
2019-02-14T14:08:47.972Z,56.00
2019-02-14T14:11:20.847Z,55.80
2019-02-14T14:13:53.589Z,55.70
2019-02-14T14:16:27.608Z,55.30
2019-02-14T14:19:06.339Z,55.40
2019-02-14T14:21:35.488Z,55.20
2019-02-14T14:24:09.010Z,55.00
2019-02-14T14:26:42.750Z,55.20
2019-02-14T14:29:15.671Z,55.40
2019-02-14T14:31:48.361Z,55.80
2019-02-14T14:34:20.279Z,55.80
2019-02-14T14:36:52.110Z,55.20
2019-02-14T14:39:25.101Z,55.20
2019-02-14T14:41:57.097Z,56.00
2019-02-14T14:44:49.847Z,55.80
2019-02-14T14:47:23.267Z,56.10
2019-02-14T14:49:54.248Z,56.60
2019-02-14T14:52:27.126Z,55.90
2019-02-14T14:54:59.651Z,55.40
2019-02-14T14:57:31.912Z,56.10
2019-02-14T15:00:04.494Z,55.40
2019-02-14T15:02:36.992Z,55.00
2019-02-14T15:05:09.653Z,56.10
2019-02-14T15:07:41.392Z,55.90
2019-02-14T15:10:13.792Z,55.60
2019-02-14T15:12:46.253Z,57.40
2019-02-14T15:15:19.233Z,56.00
2019-02-14T15:17:51.561Z,55.60
2019-02-14T15:20:23.971Z,55.30
2019-02-14T15:22:57.073Z,55.40
2019-02-14T15:25:30.052Z,55.30
2019-02-14T15:28:01.978Z,55.00
2019-02-14T15:30:34.437Z,55.00
2019-02-14T15:33:09.152Z,54.60
2019-02-14T15:35:41.614Z,54.80
2019-02-14T15:38:16.043Z,54.70
2019-02-14T15:40:49.103Z,54.80
2019-02-14T15:43:22.663Z,54.70
2019-02-14T15:45:54.906Z,56.00
2019-02-14T15:48:27.337Z,57.00
2019-02-14T15:50:59.647Z,57.60
2019-02-14T15:53:31.671Z,57.70
2019-02-14T15:56:05.532Z,58.80
2019-02-14T15:58:38.389Z,60.60
2019-02-14T16:01:10.447Z,61.40
2019-02-14T16:03:42.719Z,62.20
2019-02-14T16:06:14.634Z,62.40
2019-02-14T16:08:48.784Z,62.90
2019-02-14T16:11:20.486Z,63.10
2019-02-14T16:13:54.526Z,62.80
2019-02-14T16:16:27.006Z,63.20
2019-02-14T16:18:59.267Z,63.20
2019-02-14T16:21:31.629Z,63.60
2019-02-14T16:24:03.508Z,65.70
2019-02-14T16:26:36.873Z,66.30
2019-02-14T16:29:09.566Z,66.00
2019-02-14T16:31:41.466Z,65.60
2019-02-14T16:34:14.210Z,65.40
2019-02-14T16:36:46.028Z,65.50
2019-02-14T16:39:17.827Z,65.70
2019-02-14T16:41:49.167Z,64.30
2019-02-14T16:44:22.193Z,64.30
2019-02-14T16:46:54.592Z,64.10
2019-02-14T16:49:26.949Z,63.40
2019-02-14T16:51:59.207Z,63.60
2019-02-14T16:54:31.272Z,63.20
2019-02-14T16:57:04.129Z,63.30
2019-02-14T16:59:36.924Z,63.20
2019-02-14T17:02:09.279Z,63.60
2019-02-14T17:04:41.838Z,63.70
2019-02-14T17:07:15.128Z,64.00
2019-02-14T17:09:47.694Z,64.10
2019-02-14T17:12:20.448Z,64.00
2019-02-14T17:14:53.429Z,64.30
2019-02-14T17:17:27.992Z,63.90
2019-02-14T17:20:00.673Z,64.20
2019-02-14T17:22:33.729Z,64.10
2019-02-14T17:25:05.907Z,64.20
2019-02-14T17:27:39.169Z,64.50
2019-02-14T17:30:12.766Z,64.50
2019-02-14T17:32:45.407Z,64.70
2019-02-14T17:35:17.600Z,65.30
2019-02-14T17:37:49.940Z,64.80
2019-02-14T17:40:22.380Z,64.60
2019-02-14T17:42:55.560Z,65.30
2019-02-14T17:45:28.200Z,65.30
2019-02-14T17:48:01.262Z,65.70
2019-02-14T17:50:33.862Z,65.90
2019-02-14T17:53:06.444Z,65.60
2019-02-14T17:55:39.179Z,65.60
2019-02-14T17:58:12.421Z,65.90
2019-02-14T18:00:45.961Z,66.00
2019-02-14T18:03:19.628Z,65.90
2019-02-14T18:05:52.840Z,66.10
2019-02-14T18:08:26.259Z,66.00
2019-02-14T18:10:59.861Z,66.10
2019-02-14T18:13:32.680Z,66.50
2019-02-14T18:16:05.140Z,66.60
2019-02-14T18:18:37.740Z,66.70
2019-02-14T18:21:10.860Z,67.10
2019-02-14T18:23:44.000Z,67.00
2019-02-14T18:26:16.580Z,67.10
2019-02-14T18:28:49.319Z,67.40
2019-02-14T18:31:22.240Z,67.50
2019-02-14T18:33:55.180Z,67.80
2019-02-14T18:36:27.663Z,68.00
2019-02-14T18:39:00.464Z,68.20
2019-02-14T18:41:33.340Z,68.20
2019-02-14T18:44:06.700Z,68.50
2019-02-14T18:46:40.018Z,68.40
2019-02-14T18:49:12.600Z,68.40
2019-02-14T18:51:45.143Z,68.50
2019-02-14T18:54:18.080Z,68.40
2019-02-14T18:56:50.840Z,68.10
2019-02-14T18:59:23.660Z,68.30
2019-02-14T19:01:56.059Z,69.40
2019-02-14T19:04:28.519Z,68.90
2019-02-14T19:07:00.963Z,68.60
2019-02-14T19:09:33.600Z,69.00
2019-02-14T19:12:07.080Z,68.60
2019-02-14T19:14:39.664Z,69.30
2019-02-14T19:17:12.724Z,70.00
2019-02-14T19:19:46.580Z,70.20
2019-02-14T19:22:19.983Z,70.10
2019-02-14T19:24:52.999Z,70.20
2019-02-14T19:27:25.246Z,70.50
2019-02-14T19:29:58.363Z,70.30
2019-02-14T19:32:31.339Z,70.40
2019-02-14T19:35:04.599Z,70.40
2019-02-14T19:37:37.020Z,70.40
2019-02-14T19:40:09.019Z,70.30
2019-02-14T19:42:42.299Z,70.50
2019-02-14T19:45:15.424Z,70.70
2019-02-14T19:47:47.999Z,70.60
2019-02-14T19:50:20.361Z,70.70
2019-02-14T19:52:52.399Z,70.40
2019-02-14T19:55:25.000Z,70.30
2019-02-14T19:57:59.287Z,70.40
2019-02-14T20:00:31.458Z,71.10
2019-02-14T20:03:04.464Z,70.20
2019-02-14T20:05:37.123Z,70.10
2019-02-14T20:08:08.939Z,70.10
2019-02-14T20:10:42.001Z,70.00
2019-02-14T20:13:15.079Z,70.10
2019-02-14T20:15:48.682Z,70.40
2019-02-14T20:18:21.140Z,70.40
2019-02-14T20:20:53.742Z,70.50
2019-02-14T20:23:26.578Z,70.50
2019-02-14T20:25:58.979Z,70.50
2019-02-14T20:28:31.543Z,70.70
2019-02-14T20:31:04.683Z,70.80
2019-02-14T20:33:38.418Z,70.90
2019-02-14T20:36:12.139Z,71.00
2019-02-14T20:38:45.199Z,70.80
2019-02-14T20:41:17.679Z,70.90
2019-02-14T20:43:50.540Z,71.30
2019-02-14T20:46:23.120Z,71.30
2019-02-14T20:48:55.980Z,73.70
2019-02-14T20:51:28.339Z,74.30
2019-02-14T20:54:01.263Z,74.30
2019-02-14T20:56:33.480Z,73.50
2019-02-14T20:59:05.560Z,73.40
2019-02-14T21:01:38.165Z,73.70
2019-02-14T21:04:10.900Z,73.00
2019-02-14T21:06:44.279Z,72.80
2019-02-14T21:09:16.460Z,73.10
2019-02-14T21:11:54.420Z,73.20
2019-02-14T21:14:23.559Z,73.00
2019-02-14T21:16:56.619Z,72.80
2019-02-14T21:19:29.539Z,73.00
2019-02-14T21:22:02.840Z,73.00
2019-02-14T21:24:36.443Z,73.40
2019-02-14T21:27:09.166Z,73.30
2019-02-14T21:29:41.645Z,73.90
2019-02-14T21:32:14.560Z,73.80
2019-02-14T21:34:47.824Z,74.00
2019-02-14T21:37:21.487Z,74.10
2019-02-14T21:39:55.439Z,74.20
2019-02-14T21:42:29.419Z,73.80
2019-02-14T21:44:59.903Z,73.70
2019-02-14T21:47:32.444Z,73.60
2019-02-14T21:50:04.402Z,73.80
2019-02-14T21:52:37.423Z,73.90
2019-02-14T21:55:11.004Z,73.80
2019-02-14T21:57:44.320Z,73.70
2019-02-14T22:00:20.878Z,73.80
2019-02-14T22:02:53.371Z,73.90
2019-02-14T22:05:26.948Z,73.70
2019-02-14T22:07:59.042Z,73.90
2019-02-14T22:10:32.095Z,73.50
2019-02-14T22:13:04.203Z,73.40
2019-02-14T22:15:36.902Z,73.70
2019-02-14T22:18:10.562Z,73.40
2019-02-14T22:20:43.663Z,73.30
2019-02-14T22:23:16.739Z,73.10
2019-02-14T22:25:49.123Z,73.00
2019-02-14T22:28:21.700Z,72.80
2019-02-14T22:30:54.460Z,72.50
2019-02-14T22:33:26.760Z,72.60
2019-02-14T22:35:59.799Z,72.80
2019-02-14T22:38:32.500Z,72.80
2019-02-14T22:41:05.522Z,72.70
2019-02-14T22:43:38.221Z,73.10
2019-02-14T22:46:10.599Z,73.00
2019-02-14T22:48:44.540Z,73.20
2019-02-14T22:51:18.099Z,73.50
2019-02-14T22:53:51.384Z,73.10
2019-02-14T22:56:24.579Z,73.20
2019-02-14T22:58:57.159Z,73.60
2019-02-14T23:01:30.520Z,73.50
2019-02-14T23:04:02.860Z,73.70
2019-02-14T23:06:37.239Z,73.50
2019-02-14T23:09:11.639Z,73.60
2019-02-14T23:11:44.999Z,74.00
2019-02-14T23:14:18.340Z,73.80
2019-02-14T23:16:54.061Z,73.90
2019-02-14T23:19:26.740Z,73.50
2019-02-14T23:21:59.339Z,73.80
2019-02-14T23:24:32.179Z,74.00
2019-02-14T23:27:04.379Z,74.00
2019-02-14T23:29:36.738Z,74.20
2019-02-14T23:32:10.360Z,74.40
2019-02-14T23:34:43.000Z,74.70
2019-02-14T23:37:15.379Z,74.40
2019-02-14T23:39:48.759Z,74.10
2019-02-14T23:42:21.259Z,74.00
2019-02-14T23:44:54.562Z,74.60
2019-02-14T23:47:27.200Z,74.80
2019-02-14T23:49:59.920Z,73.90
2019-02-14T23:52:32.500Z,73.90
2019-02-14T23:55:04.599Z,74.20
2019-02-14T23:57:36.618Z,74.60
